Aguilar, CO

8:20 PM MDT on October 22, 2014 (GMT -0600)
Aguilar - Vezzani's House | Change Station
CLOSE
Current Station
Personal Weather Station
Location: Aguilar, CO
Elevation: 6417 ft
Nearby Weather Stations

Elev 6417 ft 37.41 °N, 104.65 °W | Updated 4 seconds ago

Partly Cloudy
Partly Cloudy
58.5 °F
Feels Like 58.5 °F
N
0.0
Wind Variable Wind from SSE
Gusts 3.0 mph

Today
High -- | Low -- °F
--% Chance of Precip.
Yesterday
High -- | Low -- °F
Precip. -- in
7:13 AM 6:12 PM
Waning Crescent, 1% visible
Pressure 29.99 in
Visibility 10.0 miles
Clouds Scattered Clouds 10000 ft
Dew Point 40 °F
Humidity 50%
Rainfall 0.00 in
Snow Depth Not available.
UV 0 out of 12
Pollen 2.40 out of 12
Air Quality Not available.
Flu Activity Sporadic
METAR KTAD 230154Z AUTO 06007KT 10SM SCT100 16/03 A3013 RMK AO2 SLP155 T01610033

More Conditions Fewer Conditions

Pressure 29.99 in
Visibility 10.0 miles
Clouds Scattered Clouds 10000 ft
Dew Point 40 °F
Humidity 50%
Rainfall 0.00 in
Snow Depth Not available.
UV 0 out of 12
Pollen 2.40 out of 12
Air Quality Not available.
Flu Activity Sporadic
METAR KTAD 230154Z AUTO 06007KT 10SM SCT100 16/03 A3013 RMK AO2 SLP155 T01610033

More Conditions Fewer Conditions

10-Day Weather Forecast

Almanac

Astronomy

Oct. 22, 2014 Rise Set
Actual Time 7:13 AM MDT 6:12 PM MDT
Civil Twilight 6:46 AM MDT 6:38 PM MDT
Nautical Twilight 6:16 AM MDT 7:09 PM MDT
Astronomical Twilight 5:46 AM MDT 7:39 PM MDT
Moon 5:58 AM MDT (10/22) 5:39 PM MDT (10/22)
Length of Visible Light 11h 51m
Length of Day
10h 58m
Tomorrow will be 2m 13s shorter.
Waning Crescent, 1% of the Moon is Illuminated
Today
Waning Crescent
Oct 23
New
Oct 30
First Quarter
Nov 6
Full
Nov 14
Last Quarter

Today's Extremes

State Highs State Lows

Community

WunderPhotos

Upload Photos

1,764,109 photos uploaded!

Nearby

Snow Depth

Station Depth Elevation
Apishapa 0 in 10000 ft
Ute Creek 0 in 10650 ft
South Colony 0 in 10800 ft
Lily Pond 0 in 11000 ft
Glen Cove 0 in 11460 ft

Earthquake Activity

City Distance Mag. Time & Date
Trinidad, Colorado 27 miles 2.7 10:33 PM MDT
2014-10-20
Trinidad, Colorado 16 miles 2.5 10:01 PM MDT
2014-10-19
Minimum magnitude displayed is 2.5.

Coastal Water Temperatures

Place Temperature
No Stations Reporting

Nearby Weather Stations